Terminal Aerodrome Forecast
Issued by NWS Atlanta, GA

Current Version | Previous Version | Text Only | Print | Product List | Glossary On
Versions: 1 2 3 4 5 6 7 8 9 10 11 12 13 14 15 16 17 18 19 20 21 22 23 24 25
000
FTUS42 KFFC 240953 AAA
TAFCSG
TAF AMD
KCSG 240953Z 2410/2506 11003KT P6SM SKC
      TEMPO 2411/2414 5SM BR SCT010
     FM241500 17007KT P6SM SCT040
     FM250000 17004KT P6SM SCT060=

USA.gov is the U.S. government's official web portal to all federal, state and local government web resources and services.